createdAt,value
2018-06-29T00:00:16.479Z,101389.39
2018-06-29T00:02:45.336Z,101397.56
2018-06-29T00:05:13.858Z,101392.46
2018-06-29T00:07:42.186Z,101383.64
2018-06-29T00:10:12.032Z,101386.08
2018-06-29T00:12:40.394Z,101389.14
2018-06-29T00:15:08.790Z,101391.16
2018-06-29T00:17:37.105Z,101386.16
2018-06-29T00:20:05.634Z,101390.25
2018-06-29T00:22:33.954Z,101385.23
2018-06-29T00:25:02.295Z,101386.09
2018-06-29T00:27:30.636Z,101390.46
2018-06-29T00:29:58.961Z,101385.72
2018-06-29T00:32:27.396Z,101393.40
2018-06-29T00:34:55.835Z,101389.36
2018-06-29T00:37:24.114Z,101391.55
2018-06-29T00:39:52.424Z,101384.00
2018-06-29T00:42:20.769Z,101390.89
2018-06-29T00:44:49.117Z,101391.39
2018-06-29T00:47:17.441Z,101390.97
2018-06-29T00:49:45.778Z,101395.77
2018-06-29T00:52:14.088Z,101393.04
2018-06-29T00:54:42.487Z,101393.41
2018-06-29T00:57:10.843Z,101392.75
2018-06-29T00:59:39.200Z,101397.05
2018-06-29T01:02:07.511Z,101395.89
2018-06-29T01:04:35.842Z,101393.91
2018-06-29T01:07:04.204Z,101400.54
2018-06-29T01:09:32.548Z,101395.47
2018-06-29T01:12:00.879Z,101396.05
2018-06-29T01:14:29.194Z,101397.33
2018-06-29T01:16:57.516Z,101397.04
2018-06-29T01:19:25.886Z,101392.79
2018-06-29T01:21:54.191Z,101384.13
2018-06-29T01:24:22.521Z,101381.16
2018-06-29T01:26:50.897Z,101375.92
2018-06-29T01:29:19.206Z,101369.94
2018-06-29T01:31:47.525Z,101365.53
2018-06-29T01:34:15.865Z,101362.81
2018-06-29T01:36:44.199Z,101374.11
2018-06-29T01:39:12.523Z,101377.52
2018-06-29T01:41:40.864Z,101382.79
2018-06-29T01:44:09.195Z,101385.52
2018-06-29T01:46:37.539Z,101387.48
2018-06-29T01:49:05.851Z,101386.50
2018-06-29T01:51:34.187Z,101390.41
2018-06-29T01:54:02.507Z,101384.39
2018-06-29T01:56:30.826Z,101383.55
2018-06-29T01:58:59.147Z,101384.24
2018-06-29T02:01:27.470Z,101377.82
2018-06-29T02:03:55.800Z,101371.39
2018-06-29T02:06:24.124Z,101371.22
2018-06-29T02:08:52.439Z,101365.61
2018-06-29T02:11:20.768Z,101360.58
2018-06-29T02:13:49.169Z,101358.92
2018-06-29T02:16:17.513Z,101361.03
2018-06-29T02:18:45.875Z,101360.41
2018-06-29T02:21:14.199Z,101371.86
2018-06-29T02:23:42.509Z,101356.73
2018-06-29T02:26:10.840Z,101356.55
2018-06-29T02:28:39.149Z,101356.17
2018-06-29T02:31:07.460Z,101354.90
2018-06-29T02:33:35.790Z,101349.20
2018-06-29T02:36:04.137Z,101357.19
2018-06-29T02:38:32.456Z,101350.78
2018-06-29T02:41:00.804Z,101350.90
2018-06-29T02:43:29.114Z,101352.57
2018-06-29T02:45:57.430Z,101349.06
2018-06-29T02:48:25.752Z,101348.69
2018-06-29T02:50:54.142Z,101341.16
2018-06-29T02:53:22.451Z,101351.05
2018-06-29T02:55:50.870Z,101346.61
2018-06-29T02:58:19.216Z,101341.06
2018-06-29T03:00:47.527Z,101341.72
2018-06-29T03:03:15.852Z,101332.70
2018-06-29T03:05:44.317Z,101336.22
2018-06-29T03:08:12.634Z,101329.11
2018-06-29T03:10:40.948Z,101327.76
2018-06-29T03:13:09.250Z,101326.03
2018-06-29T03:15:37.589Z,101319.84
2018-06-29T03:18:05.952Z,101323.43
2018-06-29T03:20:34.258Z,101321.78
2018-06-29T03:23:02.564Z,101323.14
2018-06-29T03:25:30.883Z,101316.84
2018-06-29T03:27:59.224Z,101315.97
2018-06-29T03:30:27.542Z,101314.00
2018-06-29T03:32:55.924Z,101313.74
2018-06-29T03:35:24.206Z,101301.41
2018-06-29T03:37:52.515Z,101300.84
2018-06-29T03:40:20.899Z,101298.89
2018-06-29T03:42:49.142Z,101299.30
2018-06-29T03:45:17.464Z,101299.75
2018-06-29T03:47:45.789Z,101294.06
2018-06-29T03:50:14.115Z,101290.36
2018-06-29T03:52:42.454Z,101291.15
2018-06-29T03:55:10.775Z,101289.38
2018-06-29T03:57:39.113Z,101293.86
2018-06-29T04:00:07.433Z,101294.13
2018-06-29T04:02:35.783Z,101301.78
2018-06-29T04:05:04.111Z,101296.35
2018-06-29T04:07:32.435Z,101298.50
2018-06-29T04:10:00.743Z,101302.38
2018-06-29T04:12:29.065Z,101301.39
2018-06-29T04:14:57.441Z,101303.80
2018-06-29T04:17:25.774Z,101298.25
2018-06-29T04:19:54.094Z,101300.22
2018-06-29T04:22:22.413Z,101292.66
2018-06-29T04:24:50.729Z,101296.16
2018-06-29T04:27:19.064Z,101296.10
2018-06-29T04:29:47.364Z,101294.74
2018-06-29T04:32:15.700Z,101290.84
2018-06-29T04:34:44.018Z,101291.52
2018-06-29T04:37:12.326Z,101288.48
2018-06-29T04:39:40.671Z,101293.16
2018-06-29T04:42:08.983Z,101291.86
2018-06-29T04:44:37.295Z,101289.48
2018-06-29T04:47:05.608Z,101282.98
2018-06-29T04:49:33.924Z,101279.37
2018-06-29T04:52:02.238Z,101276.41
2018-06-29T04:54:30.591Z,101275.51
2018-06-29T04:56:59.934Z,101274.52
2018-06-29T04:59:28.268Z,101273.62
2018-06-29T05:01:56.600Z,101270.70
2018-06-29T05:04:24.926Z,101273.25
2018-06-29T05:06:53.478Z,101275.06
2018-06-29T05:09:21.858Z,101279.55
2018-06-29T05:11:50.308Z,101279.17
2018-06-29T05:14:18.644Z,101275.04
2018-06-29T05:16:46.949Z,101279.03
2018-06-29T05:19:15.261Z,101270.45
2018-06-29T05:21:43.569Z,101277.20
2018-06-29T05:24:11.878Z,101275.66
2018-06-29T05:26:40.211Z,101273.48
2018-06-29T05:29:08.575Z,101276.15
2018-06-29T05:31:36.858Z,101270.08
2018-06-29T05:34:05.301Z,101262.70
2018-06-29T05:36:33.648Z,101266.27
2018-06-29T05:39:01.998Z,101259.52
2018-06-29T05:41:30.449Z,101266.98
2018-06-29T05:43:58.745Z,101261.73
2018-06-29T05:46:27.088Z,101258.92
2018-06-29T05:48:55.441Z,101253.78
2018-06-29T05:51:23.760Z,101254.19
2018-06-29T05:53:52.065Z,101255.48
2018-06-29T05:56:20.400Z,101263.55
2018-06-29T05:58:48.752Z,101261.23
2018-06-29T06:01:17.090Z,101264.44
2018-06-29T06:03:45.446Z,101266.93
2018-06-29T06:06:13.787Z,101266.30
2018-06-29T06:08:42.147Z,101262.91
2018-06-29T06:11:10.481Z,101264.28
2018-06-29T06:13:38.833Z,101260.70
2018-06-29T06:16:07.188Z,101260.39
2018-06-29T06:18:35.564Z,101260.46
2018-06-29T06:21:03.936Z,101258.17
2018-06-29T06:23:32.266Z,101255.22
2018-06-29T06:26:00.580Z,101264.73
2018-06-29T06:28:28.931Z,101263.74
2018-06-29T06:30:57.275Z,101258.69
2018-06-29T06:33:25.645Z,101266.27
2018-06-29T06:35:53.995Z,101255.08
2018-06-29T06:38:22.324Z,101253.72
2018-06-29T06:40:50.680Z,101252.59
2018-06-29T06:43:19.039Z,101249.55
2018-06-29T06:45:47.410Z,101249.85
2018-06-29T06:48:15.764Z,101256.00
2018-06-29T06:50:44.103Z,101250.90
2018-06-29T06:53:12.485Z,101252.05
2018-06-29T06:55:40.855Z,101249.11
2018-06-29T06:58:09.201Z,101247.69
2018-06-29T07:00:37.539Z,101247.77
2018-06-29T07:03:05.883Z,101239.55
2018-06-29T07:05:34.237Z,101244.57
2018-06-29T07:08:02.587Z,101238.75
2018-06-29T07:10:30.898Z,101237.55
2018-06-29T07:14:23.691Z,101237.17
2018-06-29T07:16:52.040Z,101235.84
2018-06-29T07:19:20.408Z,101238.72
2018-06-29T07:21:48.753Z,101242.90
2018-06-29T07:24:17.133Z,101234.86
2018-06-29T07:26:45.501Z,101232.50
2018-06-29T07:29:13.852Z,101231.36
2018-06-29T07:31:42.186Z,101229.64
2018-06-29T07:34:10.518Z,101231.00
2018-06-29T07:36:38.873Z,101224.58
2018-06-29T07:39:07.957Z,101223.08
2018-06-29T07:41:36.288Z,101220.20
2018-06-29T07:44:04.649Z,101224.30
2018-06-29T07:46:33.065Z,101225.52
2018-06-29T07:49:01.367Z,101214.05
2018-06-29T07:51:29.706Z,101211.75
2018-06-29T07:53:58.080Z,101210.35
2018-06-29T07:56:26.510Z,101203.91
2018-06-29T07:58:54.910Z,101198.33
2018-06-29T08:01:23.271Z,101191.92
2018-06-29T08:03:51.728Z,101193.41
2018-06-29T08:06:20.069Z,101187.38
2018-06-29T08:08:48.420Z,101194.42
2018-06-29T08:11:16.751Z,101189.47
2018-06-29T08:13:45.100Z,101185.52
2018-06-29T08:16:13.466Z,101180.27
2018-06-29T08:18:41.813Z,101181.69
2018-06-29T08:21:10.171Z,101183.83
2018-06-29T08:23:38.545Z,101179.73
2018-06-29T08:26:18.325Z,101176.45
2018-06-29T08:28:46.675Z,101178.81
2018-06-29T08:31:15.035Z,101170.75
2018-06-29T08:33:43.410Z,101177.11
2018-06-29T08:36:11.832Z,101170.69
2018-06-29T08:38:40.194Z,101171.06
2018-06-29T08:41:08.795Z,101158.60
2018-06-29T08:43:37.137Z,101161.52
2018-06-29T08:46:05.517Z,101168.09
2018-06-29T08:48:33.914Z,101156.73
2018-06-29T08:51:02.393Z,101158.30
2018-06-29T08:53:31.308Z,101157.69
2018-06-29T08:55:59.660Z,101151.88
2018-06-29T08:58:28.041Z,101138.71
2018-06-29T09:00:56.381Z,101136.96
2018-06-29T09:03:24.812Z,101146.05
2018-06-29T09:05:53.180Z,101141.34
2018-06-29T09:08:21.632Z,101139.78
2018-06-29T09:10:50.005Z,101141.85
2018-06-29T09:13:18.366Z,101137.85
2018-06-29T09:15:46.765Z,101138.14
2018-06-29T09:18:15.142Z,101135.13
2018-06-29T09:20:43.501Z,101124.82
2018-06-29T09:23:11.885Z,101117.66
2018-06-29T09:25:40.283Z,101115.73
2018-06-29T09:28:08.647Z,101121.06
2018-06-29T09:30:37.040Z,101120.89
2018-06-29T09:33:05.661Z,101123.44
2018-06-29T09:35:33.993Z,101118.55
2018-06-29T09:38:02.383Z,101110.29
2018-06-29T09:40:30.731Z,101111.64
2018-06-29T09:42:59.100Z,101110.27
2018-06-29T09:45:27.450Z,101104.31
2018-06-29T09:47:55.814Z,101103.33
2018-06-29T09:50:24.169Z,101099.03
2018-06-29T09:52:52.507Z,101102.34
2018-06-29T09:55:20.868Z,101099.48
2018-06-29T09:57:49.200Z,101096.41
2018-06-29T10:00:21.772Z,101101.87
2018-06-29T10:02:50.128Z,101101.52
2018-06-29T10:05:18.472Z,101094.18
2018-06-29T10:07:46.811Z,101097.41
2018-06-29T10:10:15.137Z,101089.25
2018-06-29T10:12:43.478Z,101086.36
2018-06-29T10:15:11.855Z,101090.48
2018-06-29T10:17:40.196Z,101089.50
2018-06-29T10:20:08.640Z,101077.55
2018-06-29T10:22:36.891Z,101089.41
2018-06-29T10:25:05.257Z,101082.73
2018-06-29T10:27:33.592Z,101075.98
2018-06-29T10:30:01.928Z,101069.62
2018-06-29T10:32:30.288Z,101069.36
2018-06-29T10:34:58.825Z,101061.13
2018-06-29T10:37:27.173Z,101064.67
2018-06-29T10:39:55.532Z,101063.72
2018-06-29T10:42:23.889Z,101063.66
2018-06-29T10:44:52.321Z,101067.27
2018-06-29T10:47:20.724Z,101061.09
2018-06-29T10:49:49.054Z,101056.08
2018-06-29T10:52:17.383Z,101055.27
2018-06-29T10:54:45.749Z,101042.61
2018-06-29T10:57:14.157Z,101044.00
2018-06-29T10:59:42.588Z,101041.38
2018-06-29T11:02:10.917Z,101040.87
2018-06-29T11:04:39.222Z,101053.62
2018-06-29T11:07:07.598Z,101049.31
2018-06-29T11:09:35.934Z,101047.48
2018-06-29T11:12:05.018Z,101041.28
2018-06-29T11:14:33.572Z,101035.53
2018-06-29T11:17:01.921Z,101030.30
2018-06-29T11:19:30.284Z,101027.52
2018-06-29T11:21:58.643Z,101035.35
2018-06-29T11:24:27.044Z,101032.59
2018-06-29T11:26:55.357Z,101032.58
2018-06-29T11:29:23.662Z,101030.41
2018-06-29T11:31:51.979Z,101031.05
2018-06-29T11:34:20.355Z,101033.35
2018-06-29T11:36:48.772Z,101026.33
2018-06-29T11:39:17.056Z,101028.73
2018-06-29T11:41:45.493Z,101023.21
2018-06-29T11:44:13.971Z,101023.48
2018-06-29T11:46:42.336Z,101024.55
2018-06-29T11:49:10.707Z,101020.95
2018-06-29T11:51:39.044Z,101019.56
2018-06-29T11:54:07.887Z,101022.89
2018-06-29T11:56:36.289Z,101009.78
2018-06-29T11:59:04.639Z,101012.08
2018-06-29T12:01:32.954Z,101009.13
2018-06-29T12:04:01.518Z,101007.60
2018-06-29T12:06:29.880Z,101003.42
2018-06-29T12:08:58.324Z,100994.59
2018-06-29T12:11:26.680Z,101004.66
2018-06-29T12:13:55.352Z,101004.66
2018-06-29T12:16:23.689Z,100998.36
2018-06-29T12:18:52.037Z,101004.80
2018-06-29T12:21:20.376Z,100999.16
2018-06-29T12:23:48.690Z,100986.19
2018-06-29T12:26:17.077Z,100994.02
2018-06-29T12:28:45.479Z,100987.78
2018-06-29T12:31:13.843Z,100976.77
2018-06-29T12:33:42.202Z,100978.12
2018-06-29T12:36:10.557Z,100976.66
2018-06-29T12:38:38.891Z,100972.87
2018-06-29T12:41:07.238Z,100972.16
2018-06-29T12:43:35.651Z,100973.08
2018-06-29T12:46:03.995Z,100964.01
2018-06-29T12:48:32.663Z,100959.74
2018-06-29T12:51:01.013Z,100958.91
2018-06-29T12:53:29.426Z,100957.03
2018-06-29T12:55:57.844Z,100949.75
2018-06-29T12:58:26.180Z,100945.81
2018-06-29T13:00:54.555Z,100938.77
2018-06-29T13:03:22.924Z,100937.38
2018-06-29T13:05:51.258Z,100927.07
2018-06-29T13:08:19.619Z,100940.83
2018-06-29T13:10:48.127Z,100940.14
2018-06-29T13:13:16.483Z,100936.83
2018-06-29T13:15:44.860Z,100929.41
2018-06-29T13:18:13.216Z,100924.41
2018-06-29T13:20:41.604Z,100921.66
2018-06-29T13:23:10.026Z,100921.86
2018-06-29T13:25:38.355Z,100919.90
2018-06-29T13:28:06.699Z,100918.03
2018-06-29T13:30:35.046Z,100917.20
2018-06-29T13:33:03.383Z,100914.64
2018-06-29T13:35:31.877Z,100913.56
2018-06-29T13:38:00.251Z,100909.40
2018-06-29T13:40:28.610Z,100907.00
2018-06-29T13:42:56.939Z,100909.03
2018-06-29T13:45:25.294Z,100895.56
2018-06-29T13:47:53.644Z,100888.33
2018-06-29T13:50:21.992Z,100891.41
2018-06-29T13:52:50.319Z,100891.81
2018-06-29T13:55:18.682Z,100885.06
2018-06-29T13:57:46.980Z,100886.29
2018-06-29T14:00:15.365Z,100889.73
2018-06-29T14:02:43.714Z,100874.30
2018-06-29T14:05:12.213Z,100880.35
2018-06-29T14:07:40.528Z,100878.47
2018-06-29T14:10:08.493Z,100883.24
2018-06-29T14:12:36.820Z,100881.70
2018-06-29T14:15:05.185Z,100884.17
2018-06-29T14:17:33.550Z,100877.27
2018-06-29T14:20:01.898Z,100886.88
2018-06-29T14:22:30.237Z,100889.78
2018-06-29T14:24:58.579Z,100886.90
2018-06-29T14:27:26.911Z,100885.54
2018-06-29T14:29:55.256Z,100891.41
2018-06-29T14:32:23.567Z,100894.36
2018-06-29T14:34:51.895Z,100891.67
2018-06-29T14:37:20.204Z,100879.32
2018-06-29T14:39:48.530Z,100884.95
2018-06-29T14:42:17.030Z,100885.45
2018-06-29T14:44:45.382Z,100888.89
2018-06-29T14:47:13.821Z,100891.63
2018-06-29T14:49:42.195Z,100892.30
2018-06-29T14:52:10.500Z,100886.47
2018-06-29T14:54:38.880Z,100890.99
2018-06-29T14:57:07.289Z,100892.07
2018-06-29T14:59:35.661Z,100897.05
2018-06-29T15:02:04.070Z,100896.87
2018-06-29T15:04:32.434Z,100894.44
2018-06-29T15:07:00.818Z,100894.42
2018-06-29T15:09:29.202Z,100888.58
2018-06-29T15:11:57.607Z,100881.55
2018-06-29T15:14:25.942Z,100884.21
2018-06-29T15:16:54.287Z,100883.11
2018-06-29T15:19:22.669Z,100873.82
2018-06-29T15:21:51.065Z,100876.54
2018-06-29T15:24:19.419Z,100879.23
2018-06-29T15:26:48.355Z,100874.90
2018-06-29T15:29:16.696Z,100875.93
2018-06-29T15:31:45.179Z,100879.70
2018-06-29T15:34:13.531Z,100879.32
2018-06-29T15:36:41.914Z,100882.06
2018-06-29T15:39:12.244Z,100887.97
2018-06-29T15:41:40.823Z,100884.91
2018-06-29T15:44:09.613Z,100882.47
2018-06-29T15:46:38.021Z,100891.46
2018-06-29T15:49:07.144Z,100900.44
2018-06-29T15:51:35.535Z,100901.35
2018-06-29T15:54:03.899Z,100909.61
2018-06-29T15:56:32.252Z,100923.43
2018-06-29T15:59:00.754Z,100918.81
2018-06-29T16:01:29.127Z,100928.80
2018-06-29T16:03:57.473Z,100927.77
2018-06-29T16:06:25.843Z,100927.43
2018-06-29T16:08:54.207Z,100946.30
2018-06-29T16:11:22.569Z,100944.92
2018-06-29T16:13:51.154Z,100946.59
2018-06-29T16:16:19.520Z,100958.67
2018-06-29T16:18:47.872Z,100965.50
2018-06-29T16:21:16.246Z,100955.74
2018-06-29T16:23:44.576Z,100957.03
2018-06-29T16:26:12.935Z,100972.44
2018-06-29T16:28:41.289Z,100955.06
2018-06-29T16:31:09.704Z,100972.20
2018-06-29T16:33:38.110Z,100980.36
2018-06-29T16:36:06.452Z,100989.26
2018-06-29T16:38:34.869Z,100995.17
2018-06-29T16:41:03.220Z,100983.76
2018-06-29T16:43:31.629Z,100981.19
2018-06-29T16:45:59.998Z,100986.72
2018-06-29T16:48:28.357Z,100982.70
2018-06-29T16:50:56.764Z,100988.67
2018-06-29T16:53:25.188Z,100982.07
2018-06-29T16:55:53.551Z,100983.45
2018-06-29T16:58:21.988Z,100992.17
2018-06-29T17:00:50.284Z,100991.14
2018-06-29T17:03:18.667Z,100996.88
2018-06-29T17:05:47.045Z,101008.95
2018-06-29T17:08:15.381Z,101007.52
2018-06-29T17:10:43.729Z,101007.63
2018-06-29T17:13:12.114Z,101009.59
2018-06-29T17:15:40.472Z,101009.47
2018-06-29T17:18:08.834Z,101008.80
2018-06-29T17:20:37.217Z,101005.30
2018-06-29T17:23:06.104Z,101016.59
2018-06-29T17:25:34.493Z,101019.84
2018-06-29T17:28:03.278Z,101021.79
2018-06-29T17:30:31.719Z,101034.34
2018-06-29T17:33:00.111Z,101034.41
2018-06-29T17:35:28.510Z,101036.85
2018-06-29T17:37:56.996Z,101036.48
2018-06-29T17:40:25.339Z,101040.29
2018-06-29T17:42:53.685Z,101039.23
2018-06-29T17:45:22.134Z,101040.02
2018-06-29T17:47:50.479Z,101042.16
2018-06-29T17:50:18.816Z,101040.55
2018-06-29T17:52:47.208Z,101040.19
2018-06-29T17:55:15.612Z,101045.84
2018-06-29T17:57:44.029Z,101047.16
2018-06-29T18:00:12.476Z,101054.47
2018-06-29T18:02:40.841Z,101056.52
2018-06-29T18:05:09.224Z,101058.72
2018-06-29T18:07:37.614Z,101053.87
2018-06-29T18:10:05.999Z,101052.92
2018-06-29T18:12:34.371Z,101062.25
2018-06-29T18:15:02.779Z,101060.63
2018-06-29T18:17:31.129Z,101058.67
2018-06-29T18:19:59.485Z,101063.21
2018-06-29T18:22:27.849Z,101057.89
2018-06-29T18:24:56.163Z,101066.86
2018-06-29T18:27:24.550Z,101069.23
2018-06-29T18:29:52.883Z,101069.86
2018-06-29T18:32:21.232Z,101063.23
2018-06-29T18:34:49.571Z,101071.94
2018-06-29T18:37:17.955Z,101076.90
2018-06-29T18:39:46.303Z,101072.95
2018-06-29T18:42:14.690Z,101071.99
2018-06-29T18:44:43.048Z,101075.89
2018-06-29T18:47:11.411Z,101080.24
2018-06-29T18:49:39.775Z,101084.73
2018-06-29T18:52:08.186Z,101090.86
2018-06-29T18:54:36.541Z,101088.41
2018-06-29T18:57:04.923Z,101093.38
2018-06-29T18:59:33.252Z,101090.92
2018-06-29T19:02:01.580Z,101097.36
2018-06-29T19:04:29.924Z,101102.34
2018-06-29T19:06:58.277Z,101099.98
2018-06-29T19:11:53.990Z,101106.80
2018-06-29T19:14:22.346Z,101115.27
2018-06-29T19:16:50.644Z,101120.14
2018-06-29T19:19:18.998Z,101123.50
2018-06-29T19:21:47.312Z,101126.00
2018-06-29T19:24:16.033Z,101135.05
2018-06-29T19:26:44.380Z,101140.39
2018-06-29T19:29:13.204Z,101132.95
2018-06-29T19:31:42.537Z,101139.52
2018-06-29T19:34:11.040Z,101145.86
2018-06-29T19:36:39.398Z,101145.09
2018-06-29T19:39:10.470Z,101144.09
2018-06-29T19:41:40.301Z,101149.05
2018-06-29T19:44:10.066Z,101144.81
2018-06-29T19:46:38.718Z,101145.42
2018-06-29T19:49:07.662Z,101153.01
2018-06-29T19:51:36.120Z,101163.13
2018-06-29T19:54:04.818Z,101155.58
2018-06-29T19:56:33.477Z,101163.39
2018-06-29T19:59:02.105Z,101171.05
2018-06-29T20:01:30.412Z,101171.64
2018-06-29T20:03:58.735Z,101171.55
2018-06-29T20:06:27.084Z,101178.49
2018-06-29T20:08:55.422Z,101168.52
2018-06-29T20:11:23.791Z,101178.18
2018-06-29T20:13:52.143Z,101178.28
2018-06-29T20:16:20.531Z,101180.99
2018-06-29T20:18:48.860Z,101184.16
2018-06-29T20:21:17.214Z,101187.93
2018-06-29T20:23:45.632Z,101185.84
2018-06-29T20:26:14.017Z,101195.28
2018-06-29T20:28:42.393Z,101201.92
2018-06-29T20:31:10.775Z,101198.45
2018-06-29T20:33:39.110Z,101196.76
2018-06-29T20:36:07.878Z,101203.27
2018-06-29T20:38:36.278Z,101213.59
2018-06-29T20:41:04.938Z,101213.76
2018-06-29T20:43:33.594Z,101222.81
2018-06-29T20:46:01.979Z,101217.31
2018-06-29T20:48:30.648Z,101223.69
2018-06-29T20:50:59.175Z,101226.22
2018-06-29T20:53:28.926Z,101236.86
2018-06-29T20:55:57.392Z,101235.94
2018-06-29T20:58:25.754Z,101242.99
2018-06-29T21:00:54.571Z,101236.48
2018-06-29T21:03:22.987Z,101251.04
2018-06-29T21:05:51.360Z,101253.23
2018-06-29T21:08:19.732Z,101252.31
2018-06-29T21:10:48.079Z,101257.02
2018-06-29T21:13:16.460Z,101257.67
2018-06-29T21:15:44.839Z,101259.73
2018-06-29T21:18:13.196Z,101262.58
2018-06-29T21:20:41.873Z,101261.38
2018-06-29T21:23:10.892Z,101256.99
2018-06-29T21:25:39.960Z,101259.30
2018-06-29T21:28:08.902Z,101260.08
2018-06-29T21:30:37.229Z,101265.64
2018-06-29T21:33:05.854Z,101270.18
2018-06-29T21:35:34.298Z,101272.61
2018-06-29T21:38:03.117Z,101279.59
2018-06-29T21:40:32.085Z,101280.87
2018-06-29T21:43:00.453Z,101282.69
2018-06-29T21:45:28.773Z,101288.58
2018-06-29T21:47:57.216Z,101288.68
2018-06-29T21:50:25.605Z,101288.38
2018-06-29T21:52:53.972Z,101288.01
2018-06-29T21:55:22.561Z,101298.50
2018-06-29T21:57:50.914Z,101305.10
2018-06-29T22:00:19.625Z,101307.82
2018-06-29T22:02:48.012Z,101314.44
2018-06-29T22:05:17.323Z,101312.09
2018-06-29T22:07:45.955Z,101320.25
2018-06-29T22:10:14.291Z,101323.19
2018-06-29T22:12:42.645Z,101322.03
2018-06-29T22:15:16.111Z,101324.96
2018-06-29T22:17:44.485Z,101324.36
2018-06-29T22:20:12.863Z,101330.39
2018-06-29T22:22:41.215Z,101326.81
2018-06-29T22:25:10.299Z,101325.92
2018-06-29T22:27:38.683Z,101324.38
2018-06-29T22:30:07.268Z,101338.80
2018-06-29T22:32:35.614Z,101328.64
2018-06-29T22:35:03.997Z,101329.42
2018-06-29T22:37:32.343Z,101339.41
2018-06-29T22:40:00.724Z,101338.80
2018-06-29T22:42:29.066Z,101340.34
2018-06-29T22:44:57.430Z,101341.67
2018-06-29T22:47:25.797Z,101345.87
2018-06-29T22:49:54.168Z,101344.19
2018-06-29T22:52:22.516Z,101353.97
2018-06-29T22:54:50.890Z,101356.50
2018-06-29T22:57:19.271Z,101358.52
2018-06-29T22:59:47.621Z,101361.92
2018-06-29T23:02:15.991Z,101364.97
2018-06-29T23:04:44.364Z,101365.55
2018-06-29T23:07:12.725Z,101367.89
2018-06-29T23:09:41.116Z,101378.91
2018-06-29T23:12:09.518Z,101386.84
2018-06-29T23:14:37.927Z,101377.84
2018-06-29T23:17:06.973Z,101384.31
2018-06-29T23:19:35.566Z,101381.28
2018-06-29T23:22:03.952Z,101380.59
2018-06-29T23:24:32.264Z,101377.22
2018-06-29T23:27:00.631Z,101377.98
2018-06-29T23:29:28.981Z,101386.78
2018-06-29T23:31:57.329Z,101383.09
2018-06-29T23:34:25.644Z,101391.44
2018-06-29T23:36:54.061Z,101390.81
2018-06-29T23:39:22.388Z,101393.45
2018-06-29T23:41:50.703Z,101398.73
2018-06-29T23:44:19.047Z,101394.48
2018-06-29T23:46:47.417Z,101400.22
2018-06-29T23:49:15.825Z,101393.72
2018-06-29T23:51:44.191Z,101403.88
2018-06-29T23:54:12.540Z,101404.80
2018-06-29T23:56:40.891Z,101410.77
2018-06-29T23:59:09.229Z,101414.13
